Time;durP1;ratioP1;P1;durP2;ratioP2;P2;SDS_P1;SDS_P2;PMS_P1;PMS_P2;Temp;Humidity;BMP_temperature;BMP_pressure;BME280_temperature;BME280_humidity;BME280_pressure;Samples;Min_cycle;Max_cycle;Signal;HPM_P1;HPM_P2
2022/01/23 00:00:51;;;;;;;19.30;10.80;;;6.80;99.90;;;;;;5062638;28;20199;-74
2022/01/23 00:03:19;;;;;;;19.50;11.40;;;6.80;99.90;;;;;;5057438;28;20202;-73
2022/01/23 00:05:50;;;;;;;21.67;10.70;;;6.90;99.90;;;;;;5059132;28;20263;-74
2022/01/23 00:08:23;;;;;;;18.90;10.20;;;6.80;99.90;;;;;;5045708;28;20236;-74
2022/01/23 00:10:52;;;;;;;19.03;10.90;;;6.90;99.90;;;;;;5060320;28;20223;-74
2022/01/23 00:18:35;;;;;;;25.23;11.30;;;6.80;99.90;;;;;;5059162;28;20200;-73
2022/01/23 00:21:01;;;;;;;20.50;11.13;;;6.80;99.90;;;;;;5064792;28;20226;-74
2022/01/23 00:30:17;;;;;;;20.57;11.00;;;6.80;99.90;;;;;;5060463;28;20625;-73
2022/01/23 00:31:48;;;;;;;20.93;11.10;;;6.90;99.90;;;;;;5066892;28;20218;-73
2022/01/23 00:34:15;;;;;;;20.90;11.53;;;6.90;99.90;;;;;;5061048;28;20888;-74
2022/01/23 00:36:42;;;;;;;22.87;12.03;;;7.00;99.90;;;;;;5059815;28;20204;-74
2022/01/23 00:39:09;;;;;;;26.43;12.23;;;7.10;99.90;;;;;;5059564;28;20203;-73
2022/01/23 00:41:35;;;;;;;22.03;11.60;;;7.10;99.90;;;;;;5059478;28;20269;-73
2022/01/23 00:44:03;;;;;;;25.70;12.80;;;7.00;99.90;;;;;;5065763;28;20287;-73
2022/01/23 00:46:34;;;;;;;23.77;13.10;;;7.00;99.90;;;;;;5062774;28;20601;-73
2022/01/23 00:51:34;;;;;;;23.07;12.50;;;7.10;99.90;;;;;;5065578;28;20227;-73
2022/01/23 00:54:03;;;;;;;25.47;13.10;;;6.90;99.90;;;;;;5054824;28;20720;-73
2022/01/23 00:56:30;;;;;;;24.33;12.70;;;6.90;99.90;;;;;;5080088;28;20196;-73
2022/01/23 00:58:57;;;;;;;30.23;14.60;;;6.80;99.90;;;;;;5059266;28;20674;-73
2022/01/23 01:01:25;;;;;;;30.13;14.63;;;6.80;99.90;;;;;;5058977;28;20614;-73
2022/01/23 01:03:54;;;;;;;26.77;14.13;;;7.00;99.90;;;;;;5057020;28;20217;-73
2022/01/23 01:06:21;;;;;;;27.10;13.83;;;6.90;99.90;;;;;;5065226;28;20374;-73
2022/01/23 01:08:50;;;;;;;28.97;14.30;;;6.90;99.90;;;;;;5059172;28;20562;-73
2022/01/23 01:37:50;;;;;;;31.93;13.40;;;6.70;99.90;;;;;;5057406;28;20221;-74
2022/01/23 01:40:18;;;;;;;24.97;13.13;;;6.70;99.90;;;;;;5064006;28;20200;-73
2022/01/23 01:42:45;;;;;;;26.17;13.80;;;6.80;99.90;;;;;;5059628;28;20207;-73
2022/01/23 01:45:12;;;;;;;26.37;13.57;;;6.80;99.90;;;;;;5069094;28;20219;-73
2022/01/23 01:47:50;;;;;;;31.47;15.63;;;6.70;99.90;;;;;;5065132;28;20189;-73
2022/01/23 01:50:18;;;;;;;26.23;13.10;;;6.70;99.90;;;;;;5063183;28;20195;-74
2022/01/23 01:52:45;;;;;;;29.10;13.70;;;6.70;99.90;;;;;;5056976;28;20698;-73
2022/01/23 01:55:17;;;;;;;29.77;14.03;;;6.90;99.90;;;;;;5062698;28;20692;-73
2022/01/23 01:57:52;;;;;;;26.57;13.73;;;7.00;99.90;;;;;;5065896;28;20209;-73
2022/01/23 02:08:26;;;;;;;26.07;13.53;;;6.80;99.90;;;;;;5052435;28;20210;-74
2022/01/23 02:11:15;;;;;;;28.23;14.10;;;6.80;99.90;;;;;;5059843;28;20245;-73
2022/01/23 02:50:39;;;;;;;29.23;13.03;;;6.70;99.90;;;;;;5064007;28;20282;-73
2022/01/23 02:55:45;;;;;;;26.43;12.47;;;6.50;99.90;;;;;;5065824;28;20202;-74
2022/01/23 02:58:15;;;;;;;27.17;14.10;;;6.60;99.90;;;;;;5066797;28;20579;-74
2022/01/23 03:01:08;;;;;;;27.90;13.87;;;6.60;99.90;;;;;;5058399;28;20190;-73
2022/01/23 03:03:43;;;;;;;25.07;13.00;;;6.70;99.90;;;;;;5063491;28;20572;-74
2022/01/23 03:06:24;;;;;;;29.77;14.00;;;6.80;99.90;;;;;;5064962;28;20194;-73
2022/01/23 03:32:29;;;;;;;27.77;13.03;;;6.70;99.90;;;;;;5060597;28;20217;-74
2022/01/23 03:34:55;;;;;;;25.60;13.03;;;6.70;99.90;;;;;;5062149;28;20510;-74
2022/01/23 03:37:22;;;;;;;24.93;12.97;;;6.70;99.90;;;;;;5062724;28;20191;-74
2022/01/23 03:39:49;;;;;;;29.83;13.80;;;6.70;99.90;;;;;;5063833;28;20221;-74
2022/01/23 03:42:16;;;;;;;27.10;13.13;;;6.70;99.90;;;;;;5059498;28;20227;-74
2022/01/23 03:44:55;;;;;;;29.53;13.97;;;6.70;99.90;;;;;;5064727;28;20210;-74
2022/01/23 03:47:34;;;;;;;28.17;14.53;;;6.70;99.90;;;;;;5059052;28;20213;-74
2022/01/23 03:50:00;;;;;;;30.13;13.77;;;6.70;99.90;;;;;;5062407;28;20198;-74
2022/01/23 03:52:27;;;;;;;27.47;13.67;;;6.60;99.90;;;;;;5061154;28;20224;-73
2022/01/23 03:54:54;;;;;;;28.27;13.27;;;6.60;99.90;;;;;;5060479;28;20229;-74
2022/01/23 03:57:21;;;;;;;32.23;14.53;;;6.60;99.90;;;;;;5062183;28;20205;-74
2022/01/23 03:59:47;;;;;;;27.63;13.20;;;6.70;99.90;;;;;;5063397;28;20222;-73
2022/01/23 04:02:14;;;;;;;27.20;12.70;;;6.90;99.90;;;;;;5077619;28;20212;-74
2022/01/23 04:04:42;;;;;;;24.00;12.30;;;6.80;99.90;;;;;;5059314;28;20224;-73
2022/01/23 04:07:14;;;;;;;27.77;13.10;;;6.70;99.90;;;;;;5065308;28;20670;-74
2022/01/23 04:09:42;;;;;;;25.33;12.80;;;6.70;99.90;;;;;;5068014;28;20201;-73
2022/01/23 04:12:11;;;;;;;28.27;13.13;;;6.70;99.90;;;;;;5076868;28;20223;-74
2022/01/23 04:14:46;;;;;;;28.20;13.30;;;6.80;99.90;;;;;;5059304;28;20612;-74
2022/01/23 04:17:57;;;;;;;25.17;12.60;;;6.80;99.90;;;;;;5061201;28;20201;-73
2022/01/23 04:20:26;;;;;;;25.17;12.97;;;6.60;99.90;;;;;;5058747;28;20208;-73
2022/01/23 04:33:55;;;;;;;24.37;12.30;;;6.80;99.90;;;;;;5061331;28;20224;-73
2022/01/23 05:01:27;;;;;;;27.00;12.40;;;6.80;99.90;;;;;;5060752;28;20198;-74
2022/01/23 05:06:26;;;;;;;29.53;13.83;;;6.80;99.90;;;;;;5064672;28;20195;-74
2022/01/23 05:08:52;;;;;;;27.00;12.87;;;6.80;99.90;;;;;;5056714;28;20198;-74
2022/01/23 05:11:22;;;;;;;28.47;13.80;;;6.80;99.90;;;;;;5057222;28;20198;-74
2022/01/23 05:13:49;;;;;;;28.73;12.87;;;6.90;99.90;;;;;;5062758;28;20576;-74
2022/01/23 05:16:18;;;;;;;28.37;13.03;;;6.80;99.90;;;;;;5078811;28;20251;-73
2022/01/23 05:18:45;;;;;;;25.13;11.53;;;6.80;99.90;;;;;;5067257;28;20202;-74
2022/01/23 05:23:41;;;;;;;28.57;13.07;;;6.70;99.90;;;;;;5067743;28;20222;-73
2022/01/23 05:26:08;;;;;;;28.97;13.33;;;6.80;99.90;;;;;;5067082;28;20205;-73
2022/01/23 05:28:35;;;;;;;23.97;11.70;;;6.80;99.90;;;;;;5064789;28;20215;-73
2022/01/23 05:31:01;;;;;;;26.87;12.83;;;6.80;99.90;;;;;;5061065;28;20692;-74
2022/01/23 05:33:28;;;;;;;27.10;13.03;;;6.80;99.90;;;;;;5077423;28;20230;-74
2022/01/23 05:35:55;;;;;;;23.33;12.20;;;6.80;99.90;;;;;;5068668;28;20199;-74
2022/01/23 05:38:21;;;;;;;26.70;13.47;;;6.70;99.90;;;;;;5060794;28;20195;-74
2022/01/23 05:40:55;;;;;;;32.27;13.03;;;6.70;99.90;;;;;;5067027;28;20190;-74
2022/01/23 05:43:23;;;;;;;23.47;12.07;;;6.60;99.90;;;;;;5059917;28;20221;-74
2022/01/23 05:45:49;;;;;;;25.93;12.70;;;6.60;99.90;;;;;;5074625;28;20288;-74
2022/01/23 05:48:16;;;;;;;28.03;13.00;;;6.60;99.90;;;;;;5070080;28;20658;-74
2022/01/23 05:50:47;;;;;;;25.53;12.77;;;6.60;99.90;;;;;;5059613;28;20681;-74
2022/01/23 05:53:14;;;;;;;29.80;13.27;;;6.60;99.90;;;;;;5068704;28;20218;-73
2022/01/23 05:55:41;;;;;;;26.50;12.77;;;6.60;99.90;;;;;;5067874;28;20201;-73
2022/01/23 05:58:07;;;;;;;26.93;13.73;;;6.60;99.90;;;;;;5064952;28;20207;-73
2022/01/23 06:00:34;;;;;;;25.23;12.33;;;6.60;99.90;;;;;;5056823;28;20215;-73
2022/01/23 06:03:01;;;;;;;26.50;13.23;;;6.50;99.90;;;;;;5063455;28;20194;-73
2022/01/23 06:05:28;;;;;;;25.93;13.23;;;6.40;99.90;;;;;;5069482;28;20218;-73
2022/01/23 06:07:55;;;;;;;28.50;12.90;;;6.60;99.90;;;;;;5063301;28;20629;-73
2022/01/23 06:10:25;;;;;;;27.33;13.13;;;6.60;99.90;;;;;;5063831;28;20201;-73
2022/01/23 06:12:52;;;;;;;27.53;12.83;;;6.60;99.90;;;;;;5052673;28;20471;-73
2022/01/23 06:15:19;;;;;;;25.90;12.60;;;6.60;99.90;;;;;;5065598;28;20222;-73
2022/01/23 06:17:46;;;;;;;27.43;13.17;;;6.70;99.90;;;;;;5064747;28;20241;-73
2022/01/23 06:20:14;;;;;;;28.43;13.63;;;6.70;99.90;;;;;;5061606;28;20676;-73
2022/01/23 06:22:46;;;;;;;34.57;14.10;;;6.70;99.90;;;;;;5057632;28;20671;-73
2022/01/23 06:25:15;;;;;;;25.17;12.87;;;6.70;99.90;;;;;;5058688;28;20215;-73
2022/01/23 06:27:42;;;;;;;30.03;13.13;;;6.60;99.90;;;;;;5063244;28;20206;-73
2022/01/23 06:30:10;;;;;;;27.07;13.57;;;6.70;99.90;;;;;;5062172;28;20556;-73
2022/01/23 06:32:37;;;;;;;26.97;12.00;;;6.60;99.90;;;;;;5060783;28;20221;-73
2022/01/23 06:35:05;;;;;;;28.13;13.53;;;6.50;99.90;;;;;;5058962;28;20324;-73
2022/01/23 06:37:31;;;;;;;25.57;12.97;;;6.30;99.90;;;;;;5055913;28;20187;-73
2022/01/23 06:39:58;;;;;;;28.30;13.10;;;6.20;99.90;;;;;;5058857;28;20194;-73
2022/01/23 06:42:25;;;;;;;27.27;12.53;;;6.30;99.90;;;;;;5060893;28;20639;-73
2022/01/23 06:44:51;;;;;;;24.47;12.73;;;6.00;99.90;;;;;;5062525;28;20217;-73
2022/01/23 06:47:19;;;;;;;27.43;13.10;;;6.20;99.90;;;;;;5056465;28;20193;-73
2022/01/23 06:49:46;;;;;;;25.83;12.00;;;6.20;99.90;;;;;;5074675;28;20289;-73
2022/01/23 06:52:12;;;;;;;25.43;12.50;;;6.40;99.90;;;;;;5054182;28;20724;-73
2022/01/23 06:54:39;;;;;;;24.83;11.50;;;6.50;99.90;;;;;;5053831;28;20215;-73
2022/01/23 06:57:06;;;;;;;24.70;12.43;;;6.50;99.90;;;;;;5061169;28;20198;-73
2022/01/23 06:59:33;;;;;;;27.43;13.60;;;6.60;99.90;;;;;;5072144;28;20196;-73
2022/01/23 07:02:00;;;;;;;27.77;12.90;;;6.60;99.90;;;;;;5061492;28;20213;-73
2022/01/23 07:04:26;;;;;;;25.57;12.53;;;6.40;99.90;;;;;;5058749;28;20210;-73
2022/01/23 07:06:53;;;;;;;27.00;13.20;;;6.50;99.90;;;;;;5067032;28;20203;-73
2022/01/23 07:09:20;;;;;;;28.70;12.70;;;6.70;99.90;;;;;;5065807;28;20370;-73
2022/01/23 07:11:46;;;;;;;29.23;13.10;;;6.70;99.90;;;;;;5064138;28;20637;-73
2022/01/23 07:14:13;;;;;;;26.80;12.53;;;6.80;99.90;;;;;;5060470;28;20229;-73
2022/01/23 07:16:40;;;;;;;29.87;13.33;;;6.80;99.90;;;;;;5065247;28;20502;-73
2022/01/23 07:19:07;;;;;;;25.07;12.20;;;6.70;99.90;;;;;;5065795;28;20198;-73
2022/01/23 07:21:34;;;;;;;26.70;12.53;;;6.80;99.90;;;;;;5065679;28;20208;-73
2022/01/23 07:24:01;;;;;;;26.03;12.10;;;6.60;99.90;;;;;;5059555;28;20549;-73
2022/01/23 07:26:28;;;;;;;24.73;11.67;;;6.50;99.90;;;;;;5061579;28;20222;-73
2022/01/23 07:28:57;;;;;;;25.60;12.53;;;6.40;99.90;;;;;;5061748;28;20202;-73
2022/01/23 07:34:00;;;;;;;27.83;11.93;;;6.70;99.90;;;;;;5059730;28;20305;-73
2022/01/23 07:36:27;;;;;;;25.90;12.43;;;6.70;99.90;;;;;;5063924;28;20201;-73
2022/01/23 07:38:54;;;;;;;22.20;10.73;;;6.70;99.90;;;;;;5066748;28;20196;-72
2022/01/23 07:41:20;;;;;;;27.37;12.00;;;6.70;99.90;;;;;;5063081;28;20195;-75
2022/01/23 07:43:47;;;;;;;25.03;11.83;;;6.60;99.90;;;;;;5054400;28;20663;-73
2022/01/23 07:46:15;;;;;;;25.50;11.70;;;6.60;99.90;;;;;;5064034;28;20232;-73
2022/01/23 07:48:42;;;;;;;23.17;11.30;;;6.50;99.90;;;;;;5051803;28;20289;-73
2022/01/23 07:51:09;;;;;;;23.47;11.67;;;6.70;99.90;;;;;;5061536;28;20207;-73
2022/01/23 07:53:35;;;;;;;24.67;11.00;;;6.70;99.90;;;;;;5062076;28;20223;-73
2022/01/23 07:56:03;;;;;;;23.03;12.07;;;6.70;99.90;;;;;;5062228;28;20670;-73
2022/01/23 07:58:29;;;;;;;24.03;11.67;;;6.70;99.90;;;;;;5062676;28;20404;-73
2022/01/23 08:00:56;;;;;;;22.83;11.60;;;6.60;99.90;;;;;;5065177;28;20203;-73
2022/01/23 08:03:23;;;;;;;22.77;11.43;;;6.70;99.90;;;;;;5058331;28;20259;-73
2022/01/23 08:05:50;;;;;;;25.23;11.60;;;6.80;99.90;;;;;;5060421;28;20191;-73
2022/01/23 08:08:17;;;;;;;21.87;11.63;;;6.80;99.90;;;;;;5061010;28;20198;-73
2022/01/23 08:10:43;;;;;;;23.20;11.13;;;6.80;99.90;;;;;;5063157;28;20199;-73
2022/01/23 08:13:10;;;;;;;24.03;11.37;;;6.70;99.90;;;;;;5058313;28;20253;-73
2022/01/23 08:15:37;;;;;;;22.20;11.17;;;6.60;99.90;;;;;;5065323;28;20567;-73
2022/01/23 08:18:05;;;;;;;20.87;11.17;;;6.60;99.90;;;;;;5066740;28;20518;-73
2022/01/23 08:20:33;;;;;;;26.07;12.10;;;6.60;99.90;;;;;;5062229;28;20195;-73
2022/01/23 08:23:02;;;;;;;26.57;12.23;;;6.60;99.90;;;;;;5061122;28;20374;-73
2022/01/23 08:25:30;;;;;;;23.33;11.70;;;6.70;99.90;;;;;;5060330;28;20223;-73
2022/01/23 08:27:57;;;;;;;24.50;11.13;;;6.70;99.90;;;;;;5059586;28;20203;-73
2022/01/23 08:30:25;;;;;;;25.23;12.03;;;6.60;99.90;;;;;;5055731;28;20199;-73
2022/01/23 08:32:51;;;;;;;27.57;11.63;;;6.60;99.90;;;;;;5062706;28;20222;-73
2022/01/23 08:35:20;;;;;;;22.10;11.17;;;6.60;99.90;;;;;;5064770;28;20236;-73
2022/01/23 08:37:46;;;;;;;23.33;12.10;;;6.60;99.90;;;;;;5060251;28;20194;-73
2022/01/23 08:40:23;;;;;;;26.23;11.80;;;6.60;99.90;;;;;;5054021;28;20206;-73
2022/01/23 08:42:52;;;;;;;25.47;11.90;;;6.60;99.90;;;;;;5058786;28;20210;-73
2022/01/23 08:45:19;;;;;;;26.93;12.40;;;6.60;99.90;;;;;;5064972;28;20222;-73
2022/01/23 08:47:47;;;;;;;22.73;11.67;;;6.50;99.90;;;;;;5070548;28;20202;-73
2022/01/23 08:50:15;;;;;;;25.63;11.60;;;6.60;99.90;;;;;;5066990;28;20191;-73
2022/01/23 08:52:41;;;;;;;24.60;11.83;;;6.60;99.90;;;;;;5061551;28;20222;-73
2022/01/23 08:55:09;;;;;;;21.30;11.23;;;6.60;99.90;;;;;;5064889;28;20406;-73
2022/01/23 08:57:36;;;;;;;24.40;11.07;;;6.60;99.90;;;;;;5058889;28;20202;-73
2022/01/23 09:00:23;;;;;;;21.47;10.57;;;6.60;99.90;;;;;;5063217;28;20468;-73
2022/01/23 09:02:49;;;;;;;23.40;10.80;;;6.70;99.90;;;;;;5066029;28;20665;-73
2022/01/23 09:05:18;;;;;;;25.83;11.47;;;6.80;99.90;;;;;;5070910;28;20308;-73
2022/01/23 09:07:44;;;;;;;21.40;10.83;;;6.80;99.90;;;;;;5070691;28;20198;-73
2022/01/23 09:10:11;;;;;;;32.20;11.53;;;6.90;99.90;;;;;;5065212;28;20540;-73
2022/01/23 09:15:06;;;;;;;22.90;11.00;;;7.00;99.90;;;;;;5068485;28;20210;-73
2022/01/23 09:17:33;;;;;;;21.90;10.77;;;7.00;99.90;;;;;;5065114;28;20191;-73
2022/01/23 09:20:00;;;;;;;21.50;10.47;;;6.70;99.90;;;;;;5065205;28;20226;-73
2022/01/23 09:22:29;;;;;;;19.80;10.03;;;6.90;99.90;;;;;;5071433;28;20207;-73
2022/01/23 09:24:58;;;;;;;21.57;10.73;;;7.00;99.90;;;;;;5068309;28;20425;-73
2022/01/23 09:27:25;;;;;;;20.20;10.73;;;7.00;99.90;;;;;;5066688;28;20191;-73
2022/01/23 09:29:53;;;;;;;23.77;10.60;;;7.10;99.90;;;;;;5068902;28;20190;-73
2022/01/23 09:32:23;;;;;;;20.83;9.77;;;7.20;99.90;;;;;;5068931;28;20208;-73
2022/01/23 09:34:51;;;;;;;19.37;10.33;;;7.20;99.90;;;;;;5060223;28;20569;-73
2022/01/23 09:37:19;;;;;;;19.47;10.53;;;7.20;99.90;;;;;;5065438;28;20611;-73
2022/01/23 09:39:51;;;;;;;20.20;10.03;;;7.30;99.90;;;;;;5069542;28;20210;-73
2022/01/23 09:42:26;;;;;;;24.00;10.77;;;7.40;99.90;;;;;;5062361;28;20216;-73
2022/01/23 09:45:00;;;;;;;18.77;9.43;;;7.50;99.90;;;;;;5063034;28;20307;-74
2022/01/23 09:47:28;;;;;;;23.70;10.93;;;7.60;99.90;;;;;;5065869;28;20201;-73
2022/01/23 09:49:57;;;;;;;22.13;11.30;;;7.70;99.90;;;;;;5069691;28;20200;-73
2022/01/23 09:52:29;;;;;;;24.93;10.30;;;7.90;99.90;;;;;;5065018;28;20209;-73
2022/01/23 09:54:59;;;;;;;21.97;11.07;;;7.90;99.90;;;;;;5071953;28;20214;-74
2022/01/23 09:57:30;;;;;;;18.27;9.30;;;8.10;99.90;;;;;;5062898;28;20219;-72
2022/01/23 09:59:59;;;;;;;18.70;9.40;;;8.20;99.90;;;;;;5063064;28;20642;-72
2022/01/23 10:02:28;;;;;;;17.37;8.60;;;8.20;99.90;;;;;;5064223;28;20724;-72
2022/01/23 10:05:01;;;;;;;15.80;9.27;;;8.30;99.90;;;;;;5059738;28;20208;-73
2022/01/23 10:07:28;;;;;;;19.93;10.63;;;8.40;99.90;;;;;;5077716;28;20199;-74
2022/01/23 10:10:08;;;;;;;15.63;9.03;;;8.50;99.90;;;;;;5062719;28;20194;-72
2022/01/23 10:12:38;;;;;;;18.73;9.83;;;8.60;99.90;;;;;;5069683;28;20602;-72
2022/01/23 10:15:05;;;;;;;17.67;9.30;;;8.60;99.90;;;;;;5064522;28;20226;-75
2022/01/23 10:17:32;;;;;;;23.03;10.13;;;8.70;99.90;;;;;;5062963;28;20195;-73
2022/01/23 10:19:59;;;;;;;19.67;10.27;;;8.80;99.90;;;;;;5064608;28;20245;-73
2022/01/23 10:22:26;;;;;;;18.43;9.60;;;8.80;99.90;;;;;;5068665;28;20837;-74
2022/01/23 10:25:13;;;;;;;20.37;9.57;;;8.60;99.90;;;;;;5059389;28;20329;-73
2022/01/23 10:28:04;;;;;;;19.63;10.10;;;8.60;99.90;;;;;;5060281;28;20801;-73
2022/01/23 10:30:45;;;;;;;26.93;11.03;;;8.70;99.90;;;;;;5066801;28;20198;-74
2022/01/23 10:33:19;;;;;;;22.17;10.73;;;8.80;99.90;;;;;;5059606;28;20225;-73
2022/01/23 10:36:03;;;;;;;20.80;10.07;;;8.90;99.90;;;;;;5065449;28;20198;-73
2022/01/23 10:38:53;;;;;;;17.93;10.03;;;8.90;99.90;;;;;;5062471;28;20222;-73
2022/01/23 10:50:04;;;;;;;21.27;10.33;;;8.80;99.90;;;;;;5058219;28;20206;-73
2022/01/23 10:52:35;;;;;;;21.87;10.53;;;8.70;99.90;;;;;;5058566;28;20200;-73
2022/01/23 10:55:13;;;;;;;24.50;11.17;;;8.70;99.90;;;;;;5066437;28;20222;-73
2022/01/23 10:57:43;;;;;;;23.00;11.30;;;8.60;99.90;;;;;;5066203;28;20190;-73
2022/01/23 11:00:39;;;;;;;23.77;11.17;;;8.70;99.90;;;;;;5060125;28;20198;-73
2022/01/23 11:03:22;;;;;;;22.57;10.93;;;8.70;99.90;;;;;;5063284;28;20208;-73
2022/01/23 11:05:51;;;;;;;21.20;10.60;;;8.70;99.90;;;;;;5063811;28;20196;-74
2022/01/23 11:08:21;;;;;;;21.40;10.60;;;8.80;99.90;;;;;;5064293;28;20569;-73
2022/01/23 11:11:03;;;;;;;21.23;10.53;;;9.00;99.90;;;;;;5062790;28;20238;-74
2022/01/23 11:19:35;;;;;;;18.67;9.90;;;9.40;99.90;;;;;;5056848;28;20197;-75
2022/01/23 11:22:04;;;;;;;23.83;10.43;;;9.40;99.90;;;;;;5063260;28;20210;-73
2022/01/23 11:24:42;;;;;;;18.47;8.73;;;9.60;99.90;;;;;;5066540;28;20225;-73
2022/01/23 11:27:08;;;;;;;18.20;9.10;;;9.70;99.90;;;;;;5057445;28;20571;-73
2022/01/23 11:29:36;;;;;;;16.83;9.03;;;9.80;99.90;;;;;;5062192;28;20197;-73
2022/01/23 11:32:04;;;;;;;18.07;8.60;;;9.70;99.90;;;;;;5050690;28;20693;-72
2022/01/23 11:34:33;;;;;;;16.57;8.00;;;9.70;99.90;;;;;;5062926;28;20229;-72
2022/01/23 11:36:59;;;;;;;16.87;8.33;;;9.80;99.90;;;;;;5064305;28;20218;-72
2022/01/23 11:39:40;;;;;;;17.30;8.50;;;9.80;99.90;;;;;;5061208;28;20200;-72
2022/01/23 11:56:31;;;;;;;12.57;6.70;;;10.00;99.90;;;;;;5069834;28;20196;-72
2022/01/23 11:59:10;;;;;;;13.67;6.90;;;9.90;99.90;;;;;;5057788;28;20207;-70
2022/01/23 12:01:39;;;;;;;14.80;7.53;;;9.80;99.90;;;;;;5050460;28;20206;-70
2022/01/23 12:04:06;;;;;;;14.20;7.27;;;9.70;99.90;;;;;;5063528;28;20223;-71
2022/01/23 12:06:39;;;;;;;11.87;6.20;;;9.70;99.90;;;;;;5059385;28;20386;-72
2022/01/23 12:09:16;;;;;;;12.40;7.00;;;9.90;99.90;;;;;;5059038;28;20209;-71
2022/01/23 12:12:19;;;;;;;14.33;7.37;;;10.00;99.90;;;;;;5074635;28;20201;-71
2022/01/23 12:17:19;;;;;;;10.53;5.77;;;10.30;99.90;;;;;;5059034;28;20203;-69
2022/01/23 12:19:50;;;;;;;11.30;6.57;;;10.40;99.90;;;;;;5057176;28;20213;-70
2022/01/23 12:22:29;;;;;;;14.07;7.07;;;10.50;99.90;;;;;;5060629;28;20688;-70
2022/01/23 12:24:58;;;;;;;14.47;7.00;;;10.60;99.90;;;;;;5063399;28;20226;-71
2022/01/23 12:27:31;;;;;;;13.27;6.93;;;10.60;99.90;;;;;;5056956;28;20202;-72
2022/01/23 12:30:22;;;;;;;13.33;7.10;;;10.40;99.90;;;;;;5058645;28;20201;-72
2022/01/23 12:33:10;;;;;;;12.30;7.07;;;10.40;99.90;;;;;;5062239;28;20738;-74
2022/01/23 12:35:40;;;;;;;12.60;6.83;;;10.30;99.90;;;;;;5059150;28;20205;-70
2022/01/23 12:38:10;;;;;;;14.50;6.87;;;10.10;99.90;;;;;;5059786;28;20211;-74
2022/01/23 12:40:45;;;;;;;12.60;6.67;;;10.10;99.90;;;;;;5053477;28;20204;-74
2022/01/23 12:43:21;;;;;;;13.27;6.87;;;10.10;99.90;;;;;;5051822;28;20213;-70
2022/01/23 12:46:01;;;;;;;11.40;6.33;;;10.20;99.90;;;;;;5055655;28;20204;-71
2022/01/23 12:48:36;;;;;;;13.33;6.20;;;10.20;99.90;;;;;;5061673;28;20291;-71
2022/01/23 12:51:13;;;;;;;12.57;6.57;;;10.30;99.90;;;;;;5055909;28;20203;-70
2022/01/23 12:53:45;;;;;;;13.30;7.17;;;10.40;99.90;;;;;;5062004;28;20222;-71
2022/01/23 12:56:18;;;;;;;13.77;7.00;;;10.40;99.90;;;;;;5068079;28;20240;-70
2022/01/23 12:58:53;;;;;;;12.23;6.17;;;10.40;99.90;;;;;;5054803;28;20228;-70
2022/01/23 13:01:23;;;;;;;13.07;6.40;;;10.50;99.90;;;;;;5060284;28;20197;-72
2022/01/23 13:03:59;;;;;;;11.17;6.07;;;10.30;99.90;;;;;;5049762;28;20224;-72
2022/01/23 13:06:58;;;;;;;13.00;6.37;;;10.30;99.90;;;;;;5056144;28;20677;-71
2022/01/23 13:14:53;;;;;;;8.90;5.37;;;10.50;99.90;;;;;;5060744;28;20227;-72
2022/01/23 13:32:07;;;;;;;13.00;6.40;;;9.80;99.90;;;;;;5066347;28;20644;-73
2022/01/23 13:34:49;;;;;;;13.33;7.07;;;9.80;99.90;;;;;;5066528;28;20219;-71
2022/01/23 13:37:22;;;;;;;11.13;5.77;;;9.80;99.90;;;;;;5070466;28;20195;-70
2022/01/23 13:40:01;;;;;;;9.37;4.80;;;9.70;99.90;;;;;;5067791;28;20201;-72
2022/01/23 13:53:22;;;;;;;13.77;7.10;;;9.60;99.90;;;;;;5067539;28;20349;-70
2022/01/23 13:58:39;;;;;;;9.07;4.93;;;9.30;99.90;;;;;;5066681;28;20689;-70
2022/01/23 14:01:49;;;;;;;10.03;5.00;;;9.30;99.90;;;;;;5085359;28;20205;-70
2022/01/23 14:04:02;;;;;;;6.70;3.97;;;9.30;99.90;;;;;;5064402;28;20221;-70
2022/01/23 14:06:29;;;;;;;6.53;3.73;;;9.40;99.90;;;;;;5068605;28;20306;-70
2022/01/23 14:09:05;;;;;;;7.53;3.80;;;9.40;99.90;;;;;;5068655;28;20198;-71
2022/01/23 14:11:32;;;;;;;6.50;3.83;;;9.30;99.90;;;;;;5070141;28;20198;-70
2022/01/23 14:14:16;;;;;;;6.47;3.70;;;9.30;99.90;;;;;;5071229;28;20689;-70
2022/01/23 14:16:45;;;;;;;6.43;3.93;;;9.20;99.90;;;;;;5056380;28;20590;-70
2022/01/23 14:19:28;;;;;;;7.40;3.90;;;9.30;99.90;;;;;;5071043;28;20190;-70
2022/01/23 14:21:57;;;;;;;6.83;3.80;;;9.30;99.90;;;;;;5070528;28;20197;-71
2022/01/23 14:24:29;;;;;;;9.67;4.60;;;9.20;99.90;;;;;;5069475;28;20218;-71
2022/01/23 14:26:56;;;;;;;9.37;4.47;;;9.10;99.90;;;;;;5060849;28;20202;-69
2022/01/23 14:29:24;;;;;;;8.93;4.93;;;9.20;99.90;;;;;;5060798;28;20329;-71
2022/01/23 14:32:15;;;;;;;9.40;4.30;;;9.10;99.90;;;;;;5058909;28;20206;-71
2022/01/23 14:34:41;;;;;;;8.23;4.57;;;9.10;99.90;;;;;;5066814;28;20217;-73
2022/01/23 14:37:08;;;;;;;9.67;5.70;;;9.10;99.90;;;;;;5072298;28;20653;-71
2022/01/23 14:39:37;;;;;;;11.37;5.63;;;9.10;99.90;;;;;;5064703;28;20650;-71
2022/01/23 14:42:15;;;;;;;8.87;5.40;;;9.10;99.90;;;;;;5062883;28;20245;-71
2022/01/23 14:44:42;;;;;;;8.37;4.63;;;9.00;99.90;;;;;;5058829;28;20219;-72
2022/01/23 14:47:09;;;;;;;8.00;4.80;;;8.90;99.90;;;;;;5069812;28;20197;-71
2022/01/23 14:49:38;;;;;;;11.80;5.37;;;8.80;99.90;;;;;;5066095;28;20205;-72
2022/01/23 14:52:10;;;;;;;9.97;5.57;;;8.70;99.90;;;;;;5061603;28;20270;-70
2022/01/23 14:54:37;;;;;;;11.60;5.20;;;8.70;99.90;;;;;;5063535;28;20234;-71
2022/01/23 14:57:06;;;;;;;8.40;4.63;;;8.80;99.90;;;;;;5067865;28;20195;-73
2022/01/23 14:59:34;;;;;;;7.57;4.13;;;8.80;99.90;;;;;;5059889;28;20191;-71
2022/01/23 15:02:02;;;;;;;6.97;4.03;;;8.80;99.90;;;;;;5062154;28;20195;-71
2022/01/23 15:04:29;;;;;;;10.80;5.17;;;8.80;99.90;;;;;;5063856;28;20215;-72
2022/01/23 15:06:55;;;;;;;7.93;4.73;;;8.80;99.90;;;;;;5060798;28;20198;-72
2022/01/23 15:09:23;;;;;;;9.53;4.17;;;8.70;99.90;;;;;;5055222;28;20459;-69
2022/01/23 15:11:50;;;;;;;8.10;4.53;;;8.60;99.90;;;;;;5068326;28;20207;-70
2022/01/23 15:14:18;;;;;;;7.50;4.43;;;8.70;99.90;;;;;;5059371;28;20223;-70
2022/01/23 15:16:45;;;;;;;8.40;4.40;;;8.60;99.90;;;;;;5067283;28;20200;-69
2022/01/23 15:19:12;;;;;;;7.87;3.73;;;8.70;99.90;;;;;;5060116;28;20277;-70
2022/01/23 15:21:39;;;;;;;7.50;4.37;;;8.60;99.90;;;;;;5069243;28;20191;-69
2022/01/23 15:24:07;;;;;;;8.57;4.27;;;8.50;99.90;;;;;;5059329;28;20222;-69
2022/01/23 15:26:35;;;;;;;7.67;4.30;;;8.50;99.90;;;;;;5069053;28;20197;-69
2022/01/23 15:29:04;;;;;;;7.03;4.07;;;8.50;99.90;;;;;;5060928;28;20194;-69
2022/01/23 15:31:31;;;;;;;8.33;4.33;;;8.40;99.90;;;;;;5054914;28;20276;-68
2022/01/23 15:33:58;;;;;;;7.60;4.40;;;8.50;99.90;;;;;;5067761;28;20229;-70
2022/01/23 15:36:24;;;;;;;11.47;4.53;;;8.40;99.90;;;;;;5058414;28;20195;-75
2022/01/23 15:38:51;;;;;;;9.40;4.63;;;8.40;99.90;;;;;;5068345;28;20201;-72
2022/01/23 15:41:18;;;;;;;8.30;4.97;;;8.50;99.90;;;;;;5063710;28;20204;-71
2022/01/23 15:43:44;;;;;;;8.40;4.70;;;8.40;99.90;;;;;;5068432;28;20228;-70
2022/01/23 15:46:13;;;;;;;7.30;4.33;;;8.40;99.90;;;;;;5063916;28;20213;-70
2022/01/23 15:48:40;;;;;;;8.87;4.60;;;8.40;99.90;;;;;;5068665;28;20201;-73
2022/01/23 15:51:07;;;;;;;7.00;3.87;;;8.30;99.90;;;;;;5061036;28;20212;-71
2022/01/23 15:53:34;;;;;;;7.37;4.47;;;8.20;99.90;;;;;;5058140;28;20218;-68
2022/01/23 15:56:00;;;;;;;8.73;4.60;;;8.20;99.90;;;;;;5062240;28;20214;-68
2022/01/23 15:58:28;;;;;;;8.97;5.00;;;8.30;99.90;;;;;;5061549;28;20259;-69
2022/01/23 16:00:55;;;;;;;9.53;5.20;;;8.30;99.90;;;;;;5066412;28;20217;-69
2022/01/23 16:03:25;;;;;;;8.13;4.70;;;8.30;99.90;;;;;;5052759;28;20197;-68
2022/01/23 16:05:54;;;;;;;7.13;4.00;;;8.10;99.90;;;;;;5063397;28;20250;-69
2022/01/23 16:08:21;;;;;;;9.67;4.83;;;8.20;99.90;;;;;;5066811;28;20284;-68
2022/01/23 16:10:48;;;;;;;8.03;4.47;;;8.30;99.90;;;;;;5068273;28;20209;-68
2022/01/23 16:13:15;;;;;;;7.87;4.13;;;8.20;99.90;;;;;;5061082;28;20212;-68
2022/01/23 16:15:43;;;;;;;8.90;4.50;;;8.20;99.90;;;;;;5062782;28;20222;-69
2022/01/23 16:18:10;;;;;;;8.83;4.27;;;8.10;99.90;;;;;;5062670;28;20198;-68
2022/01/23 16:20:38;;;;;;;6.73;4.23;;;8.00;99.90;;;;;;5068516;28;20209;-68
2022/01/23 16:23:05;;;;;;;7.37;4.17;;;8.00;99.90;;;;;;5064469;28;20718;-68
2022/01/23 16:25:33;;;;;;;8.17;4.13;;;8.00;99.90;;;;;;5059619;28;20665;-69
2022/01/23 16:28:00;;;;;;;7.93;4.90;;;8.00;99.90;;;;;;5069424;28;20219;-68
2022/01/23 16:30:50;;;;;;;8.17;4.43;;;8.00;99.90;;;;;;5061803;28;20204;-68
2022/01/23 16:33:19;;;;;;;11.83;4.87;;;8.00;99.90;;;;;;5058374;28;20212;-68
2022/01/23 16:35:46;;;;;;;8.43;4.57;;;8.00;99.90;;;;;;5072374;28;20246;-68
2022/01/23 16:38:13;;;;;;;9.80;4.63;;;7.90;99.90;;;;;;5055635;28;20199;-68